createdAt,value
2019-04-22T00:01:57.869Z,13.85
2019-04-22T00:04:40.234Z,14.30
2019-04-22T00:07:22.248Z,17.62
2019-04-22T00:12:34.112Z,14.40
2019-04-22T00:15:03.751Z,12.70
2019-04-22T00:17:46.500Z,14.10
2019-04-22T00:20:14.408Z,12.65
2019-04-22T00:22:45.987Z,13.90
2019-04-22T00:25:26.701Z,14.78
2019-04-22T00:28:02.354Z,15.08
2019-04-22T00:30:22.474Z,15.90
2019-04-22T00:33:18.707Z,17.95
2019-04-22T00:35:49.434Z,18.45
2019-04-22T00:38:23.789Z,19.60
2019-04-22T00:40:50.974Z,21.60
2019-04-22T00:43:33.344Z,20.88
2019-04-22T00:46:04.002Z,18.92
2019-04-22T00:49:18.748Z,23.15
2019-04-22T00:51:13.890Z,17.90
2019-04-22T00:53:48.121Z,24.87
2019-04-22T00:56:24.666Z,23.22
2019-04-22T00:58:59.121Z,18.37
2019-04-22T01:01:34.991Z,19.65
2019-04-22T01:04:14.225Z,19.90
2019-04-22T01:06:38.434Z,21.52
2019-04-22T01:09:10.812Z,17.37
2019-04-22T01:11:50.535Z,17.80
2019-04-22T01:14:24.992Z,20.37
2019-04-22T01:16:54.783Z,17.32
2019-04-22T01:19:32.348Z,15.75
2019-04-22T01:22:00.635Z,18.65
2019-04-22T01:24:37.046Z,17.30
2019-04-22T01:27:05.088Z,21.20
2019-04-22T01:29:32.176Z,18.90
2019-04-22T01:31:53.090Z,20.82
2019-04-22T01:34:40.563Z,23.52
2019-04-22T01:37:20.339Z,20.52
2019-04-22T01:40:07.476Z,18.48
2019-04-22T01:42:43.238Z,19.12
2019-04-22T01:45:13.817Z,19.07
2019-04-22T01:47:43.480Z,19.02
2019-04-22T01:50:21.454Z,20.75
2019-04-22T01:53:06.297Z,20.62
2019-04-22T01:55:40.309Z,21.50
2019-04-22T01:58:08.466Z,22.80
2019-04-22T02:00:44.310Z,23.27
2019-04-22T02:03:26.548Z,21.42
2019-04-22T02:05:59.505Z,20.52
2019-04-22T02:08:37.934Z,18.77
2019-04-22T02:11:07.715Z,20.20
2019-04-22T02:13:42.757Z,21.27
2019-04-22T02:16:14.556Z,23.63
2019-04-22T02:18:47.548Z,19.93
2019-04-22T02:21:15.259Z,22.37
2019-04-22T02:26:31.275Z,19.27
2019-04-22T02:29:00.088Z,19.80
2019-04-22T02:31:44.596Z,19.70
2019-04-22T02:34:18.721Z,18.75
2019-04-22T02:41:54.736Z,17.07
2019-04-22T02:44:46.618Z,18.95
2019-04-22T02:49:38.629Z,17.67
2019-04-22T02:52:27.160Z,18.52
2019-04-22T02:54:55.160Z,18.30
2019-04-22T02:57:32.011Z,20.70
2019-04-22T03:00:07.370Z,19.25
2019-04-22T03:02:50.812Z,19.75
2019-04-22T03:05:17.544Z,21.35
2019-04-22T03:07:58.566Z,19.57
2019-04-22T03:10:29.451Z,17.90
2019-04-22T03:13:01.096Z,20.23
2019-04-22T03:15:38.057Z,16.32
2019-04-22T03:20:42.717Z,18.32
2019-04-22T03:28:30.326Z,20.35
2019-04-22T03:31:55.026Z,18.40
2019-04-22T03:39:33.453Z,19.87
2019-04-22T03:47:06.096Z,21.23
2019-04-22T03:49:37.249Z,21.52
2019-04-22T03:52:05.815Z,27.37
2019-04-22T04:02:21.600Z,20.40
2019-04-22T04:07:32.453Z,22.70
2019-04-22T04:10:01.403Z,27.20
2019-04-22T04:12:28.683Z,24.25
2019-04-22T04:17:51.575Z,21.05
2019-04-22T04:23:05.727Z,20.73
2019-04-22T04:28:24.468Z,20.48
2019-04-22T04:33:09.251Z,20.88
2019-04-22T04:38:06.917Z,25.30
2019-04-22T04:40:41.791Z,21.70
2019-04-22T04:46:08.429Z,18.02
2019-04-22T04:48:47.244Z,17.87
2019-04-22T04:51:16.151Z,28.05
2019-04-22T04:53:55.358Z,18.10
2019-04-22T04:56:30.401Z,18.55
2019-04-22T04:58:55.779Z,19.15
2019-04-22T05:11:40.736Z,18.17
2019-04-22T05:19:09.691Z,17.15
2019-04-22T05:21:41.786Z,23.30
2019-04-22T05:24:19.841Z,15.50
2019-04-22T05:29:22.168Z,19.35
2019-04-22T05:31:55.324Z,16.20
2019-04-22T05:34:35.146Z,14.43
2019-04-22T05:37:03.968Z,16.57
2019-04-22T05:39:29.792Z,16.00
2019-04-22T05:42:10.398Z,19.67
2019-04-22T05:44:48.073Z,17.92
2019-04-22T05:47:14.931Z,17.98
2019-04-22T05:49:55.168Z,15.45
2019-04-22T05:52:26.632Z,18.17
2019-04-22T05:55:03.015Z,16.82
2019-04-22T05:57:31.606Z,15.15
2019-04-22T06:00:16.251Z,16.48
2019-04-22T06:02:53.501Z,15.93
2019-04-22T06:05:19.631Z,19.25
2019-04-22T06:07:45.745Z,13.55
2019-04-22T06:10:31.072Z,12.15
2019-04-22T06:12:56.488Z,11.83
2019-04-22T06:15:31.621Z,15.18
2019-04-22T06:18:09.474Z,11.08
2019-04-22T06:20:49.779Z,12.43
2019-04-22T06:23:19.095Z,12.43
2019-04-22T06:26:00.495Z,12.33
2019-04-22T06:28:28.868Z,13.08
2019-04-22T06:30:57.432Z,8.63
2019-04-22T06:33:26.071Z,12.95
2019-04-22T06:36:01.960Z,10.28
2019-04-22T06:38:35.906Z,15.78
2019-04-22T06:41:10.498Z,10.20
2019-04-22T06:43:44.637Z,11.90
2019-04-22T06:46:15.312Z,18.40
2019-04-22T06:48:43.992Z,12.98
2019-04-22T06:51:20.187Z,8.65
2019-04-22T06:53:49.394Z,8.05
2019-04-22T06:56:22.073Z,10.15
2019-04-22T06:58:58.018Z,10.45
2019-04-22T07:01:40.462Z,8.38
2019-04-22T07:04:03.577Z,11.20
2019-04-22T07:07:02.275Z,9.10
2019-04-22T07:11:51.533Z,8.83
2019-04-22T07:14:19.899Z,11.08
2019-04-22T07:16:56.118Z,8.60
2019-04-22T07:19:36.113Z,7.95
2019-04-22T07:22:09.632Z,8.23
2019-04-22T07:27:11.602Z,8.68
2019-04-22T07:29:46.897Z,7.50
2019-04-22T07:32:17.283Z,8.98
2019-04-22T07:34:56.862Z,10.78
2019-04-22T07:37:31.590Z,11.48
2019-04-22T07:39:50.249Z,7.37
2019-04-22T07:42:34.750Z,10.65
2019-04-22T07:45:03.861Z,10.78
2019-04-22T07:47:50.033Z,8.78
2019-04-22T07:50:15.288Z,7.15
2019-04-22T07:52:44.938Z,10.45
2019-04-22T07:55:29.476Z,7.75
2019-04-22T07:58:01.173Z,8.70
2019-04-22T08:00:34.331Z,7.25
2019-04-22T08:03:10.662Z,11.10
2019-04-22T08:05:51.915Z,6.85
2019-04-22T08:08:19.663Z,8.58
2019-04-22T08:13:25.586Z,6.60
2019-04-22T08:15:58.774Z,8.03
2019-04-22T08:18:34.381Z,7.80
2019-04-22T08:21:07.547Z,6.78
2019-04-22T08:26:06.642Z,6.97
2019-04-22T08:28:46.132Z,7.40
2019-04-22T08:31:25.098Z,6.85
2019-04-22T08:34:00.613Z,7.55
2019-04-22T08:36:32.006Z,7.45
2019-04-22T08:39:07.913Z,9.95
2019-04-22T08:41:57.227Z,11.60
2019-04-22T08:46:42.021Z,5.83
2019-04-22T08:49:10.183Z,7.50
2019-04-22T08:51:49.446Z,6.97
2019-04-22T08:54:24.508Z,6.58
2019-04-22T08:56:58.270Z,10.18
2019-04-22T08:59:28.376Z,8.08
2019-04-22T09:02:07.694Z,6.40
2019-04-22T09:04:37.081Z,10.95
2019-04-22T09:07:21.171Z,7.45
2019-04-22T09:09:50.766Z,6.53
2019-04-22T09:15:01.158Z,7.50
2019-04-22T09:17:47.836Z,7.33
2019-04-22T09:20:20.692Z,9.23
2019-04-22T09:22:53.926Z,6.37
2019-04-22T09:25:27.430Z,5.15
2019-04-22T09:28:01.925Z,6.92
2019-04-22T09:30:40.198Z,5.78
2019-04-22T09:33:17.051Z,5.67
2019-04-22T09:35:49.833Z,6.53
2019-04-22T09:38:25.699Z,7.67
2019-04-22T09:40:46.868Z,6.80
2019-04-22T09:43:25.888Z,8.63
2019-04-22T09:45:53.253Z,5.40
2019-04-22T09:48:37.556Z,8.10
2019-04-22T09:51:05.632Z,6.65
2019-04-22T09:53:46.798Z,5.53
2019-04-22T09:56:18.261Z,6.22
2019-04-22T09:59:05.491Z,8.75
2019-04-22T10:01:29.692Z,8.00
2019-04-22T10:04:05.392Z,9.25
2019-04-22T10:06:33.764Z,5.92
2019-04-22T10:09:30.936Z,6.87
2019-04-22T10:11:47.078Z,9.65
2019-04-22T10:14:13.668Z,7.95
2019-04-22T10:19:16.735Z,7.55
2019-04-22T10:22:07.293Z,9.63
2019-04-22T10:24:38.814Z,9.80
2019-04-22T10:51:10.654Z,10.50
2019-04-22T10:53:43.714Z,9.33
2019-04-22T10:56:16.854Z,9.25
2019-04-22T10:58:48.954Z,8.33
2019-04-22T11:01:21.447Z,8.60
2019-04-22T11:03:53.270Z,16.00
2019-04-22T11:06:25.390Z,11.33
2019-04-22T11:09:01.366Z,7.42
2019-04-22T11:14:43.741Z,12.37
2019-04-22T11:17:15.675Z,6.35
2019-04-22T11:25:57.755Z,7.53
2019-04-22T11:28:29.639Z,5.58
2019-04-22T11:31:02.562Z,6.75
2019-04-22T11:33:34.658Z,6.05
2019-04-22T11:36:07.952Z,7.08
2019-04-22T11:54:23.428Z,7.45
2019-04-22T11:56:54.938Z,9.48
2019-04-22T11:59:26.793Z,6.62
2019-04-22T12:05:03.713Z,6.50
2019-04-22T12:10:46.905Z,9.73
2019-04-22T12:16:25.472Z,5.90
2019-04-22T12:34:23.816Z,8.25
2019-04-22T12:36:56.306Z,5.42
2019-04-22T12:48:47.862Z,6.15
2019-04-22T12:51:19.212Z,6.25
2019-04-22T12:53:50.945Z,6.35
2019-04-22T12:56:23.897Z,8.55
2019-04-22T12:58:55.901Z,9.63
2019-04-22T13:04:32.249Z,9.55
2019-04-22T13:07:04.114Z,10.75
2019-04-22T13:09:36.964Z,6.15
2019-04-22T13:12:13.134Z,5.35
2019-04-22T13:14:45.517Z,6.50
2019-04-22T13:17:17.175Z,6.80
2019-04-22T13:22:50.592Z,11.30
2019-04-22T13:25:24.844Z,11.50
2019-04-22T13:27:57.597Z,5.60
2019-04-22T13:37:12.850Z,6.40
2019-04-22T13:39:45.060Z,6.53
2019-04-22T13:45:23.088Z,5.80
2019-04-22T14:16:06.930Z,7.40
2019-04-22T14:40:09.221Z,10.30
2019-04-22T14:42:58.947Z,7.55
2019-04-22T15:14:15.210Z,9.88
2019-04-22T15:17:22.903Z,5.83
2019-04-22T15:20:16.599Z,4.60
2019-04-22T15:22:48.821Z,11.28
2019-04-22T15:25:20.713Z,7.65
2019-04-22T15:27:53.370Z,17.10
2019-04-22T15:30:25.522Z,8.83
2019-04-22T15:32:57.308Z,11.40
2019-04-22T15:35:29.272Z,7.33
2019-04-22T15:38:01.490Z,8.50
2019-04-22T15:40:34.579Z,7.28
2019-04-22T15:43:06.611Z,11.97
2019-04-22T15:45:39.086Z,11.95
2019-04-22T15:48:11.791Z,11.25
2019-04-22T15:50:44.741Z,11.60
2019-04-22T15:53:17.905Z,16.23
2019-04-22T15:55:50.410Z,21.15
2019-04-22T15:58:21.995Z,12.78
2019-04-22T16:01:05.306Z,15.48
2019-04-22T16:03:26.933Z,14.93
2019-04-22T16:05:59.766Z,13.35
2019-04-22T16:20:05.102Z,15.15
2019-04-22T16:26:01.456Z,18.65
2019-04-22T16:28:33.435Z,14.65
2019-04-22T16:31:07.048Z,16.07
2019-04-22T16:33:41.440Z,16.82
2019-04-22T18:04:20.045Z,12.93
2019-04-22T18:07:18.378Z,17.67
2019-04-22T18:12:32.229Z,9.88
2019-04-22T18:15:06.094Z,9.18
2019-04-22T18:17:35.511Z,13.85
2019-04-22T18:20:04.603Z,8.93
2019-04-22T18:22:34.765Z,14.45
2019-04-22T18:25:08.727Z,7.95
2019-04-22T18:27:59.038Z,7.15
2019-04-22T18:30:21.874Z,7.33
2019-04-22T18:32:55.569Z,9.28
2019-04-22T18:35:38.021Z,11.40
2019-04-22T18:38:17.900Z,7.33
2019-04-22T18:40:47.728Z,9.58
2019-04-22T18:43:24.613Z,9.08
2019-04-22T18:46:12.658Z,7.30
2019-04-22T18:48:30.086Z,9.85
2019-04-22T18:51:17.209Z,11.55
2019-04-22T18:54:05.131Z,9.55
2019-04-22T18:56:41.904Z,13.20
2019-04-22T18:59:05.609Z,11.88
2019-04-22T19:01:28.325Z,10.08
2019-04-22T19:04:11.637Z,10.58
2019-04-22T19:06:56.476Z,16.17
2019-04-22T19:09:38.638Z,10.72
2019-04-22T19:12:16.969Z,9.90
2019-04-22T19:14:45.526Z,12.07
2019-04-22T19:17:24.975Z,12.05
2019-04-22T19:19:49.811Z,10.03
2019-04-22T19:22:27.640Z,14.50
2019-04-22T19:24:51.725Z,12.93
2019-04-22T19:27:26.829Z,10.08
2019-04-22T19:30:04.275Z,12.58
2019-04-22T19:32:40.382Z,11.63
2019-04-22T19:35:06.551Z,13.78
2019-04-22T19:37:39.790Z,11.30
2019-04-22T19:40:14.859Z,11.53
2019-04-22T19:45:17.108Z,11.50
2019-04-22T19:48:08.349Z,12.45
2019-04-22T19:50:28.008Z,13.18
2019-04-22T19:53:05.027Z,14.90
2019-04-22T19:55:37.076Z,15.10
2019-04-22T19:58:12.739Z,14.80
2019-04-22T20:01:08.729Z,17.15
2019-04-22T20:04:12.081Z,14.80
2019-04-22T20:06:44.389Z,14.53
2019-04-22T20:09:20.614Z,16.95
2019-04-22T20:11:55.154Z,19.30
2019-04-22T20:14:24.917Z,15.90
2019-04-22T20:16:54.425Z,13.03
2019-04-22T20:19:41.315Z,13.15
2019-04-22T20:22:03.018Z,16.00
2019-04-22T20:24:25.633Z,15.55
2019-04-22T20:27:13.670Z,13.10
2019-04-22T20:29:47.829Z,17.55
2019-04-22T20:32:20.228Z,19.75
2019-04-22T20:34:59.126Z,17.40
2019-04-22T20:37:37.073Z,18.27
2019-04-22T20:40:02.525Z,17.35
2019-04-22T20:45:11.809Z,16.85
2019-04-22T20:47:34.493Z,22.93
2019-04-22T20:50:15.745Z,17.67
2019-04-22T20:52:54.061Z,16.70
2019-04-22T20:55:15.325Z,21.05
2019-04-22T20:57:56.100Z,21.75
2019-04-22T21:00:19.783Z,28.80
2019-04-22T21:02:50.526Z,22.93
2019-04-22T21:05:27.341Z,22.32
2019-04-22T21:08:15.491Z,23.30
2019-04-22T21:10:33.422Z,25.72
2019-04-22T21:13:09.720Z,22.80
2019-04-22T21:15:49.229Z,22.13
2019-04-22T21:18:22.105Z,17.02
2019-04-22T21:20:57.943Z,22.05
2019-04-22T21:23:24.268Z,22.87
2019-04-22T21:26:05.265Z,20.85
2019-04-22T21:28:42.005Z,18.10
2019-04-22T21:31:16.069Z,18.00
2019-04-22T21:33:42.802Z,17.50
2019-04-22T21:36:23.818Z,17.25
2019-04-22T21:38:51.927Z,17.80
2019-04-22T21:41:20.083Z,15.75
2019-04-22T21:43:52.622Z,17.75
2019-04-22T21:46:28.879Z,19.90
2019-04-22T21:49:06.470Z,20.10
2019-04-22T21:51:39.876Z,19.30
2019-04-22T21:54:15.447Z,26.55
2019-04-22T21:57:07.475Z,19.77
2019-04-22T21:59:29.879Z,17.50
2019-04-22T22:02:11.776Z,18.42
2019-04-22T22:04:38.677Z,22.75
2019-04-22T22:07:04.535Z,19.15
2019-04-22T22:09:48.991Z,20.97
2019-04-22T22:12:26.392Z,20.08
2019-04-22T22:14:58.791Z,17.12
2019-04-22T22:17:30.698Z,19.90
2019-04-22T22:20:03.031Z,19.20
2019-04-22T22:25:16.370Z,20.80
2019-04-22T22:27:52.145Z,19.15
2019-04-22T22:33:04.367Z,21.00
2019-04-22T22:35:31.487Z,19.67
2019-04-22T22:38:09.460Z,20.95
2019-04-22T22:40:26.123Z,20.30
2019-04-22T22:42:57.333Z,17.52
2019-04-22T22:45:37.073Z,19.50
2019-04-22T22:48:28.438Z,19.50
2019-04-22T22:50:55.066Z,23.90
2019-04-22T22:53:34.015Z,20.55
2019-04-22T22:56:05.083Z,19.77
2019-04-22T22:58:41.358Z,20.68
2019-04-22T23:01:10.401Z,19.62
2019-04-22T23:04:02.347Z,19.70
2019-04-22T23:06:26.504Z,21.57
2019-04-22T23:09:01.901Z,18.42
2019-04-22T23:11:46.593Z,18.92
2019-04-22T23:14:02.426Z,21.37
2019-04-22T23:16:25.248Z,18.23
2019-04-22T23:19:02.759Z,17.77
2019-04-22T23:21:41.648Z,19.95
2019-04-22T23:24:29.984Z,21.02
2019-04-22T23:27:11.403Z,21.10
2019-04-22T23:30:04.113Z,22.27
2019-04-22T23:32:35.503Z,24.57
2019-04-22T23:35:22.658Z,24.25
2019-04-22T23:37:57.254Z,22.85
2019-04-22T23:40:40.118Z,25.68
2019-04-22T23:43:15.844Z,24.32
2019-04-22T23:45:44.867Z,28.35
2019-04-22T23:48:15.205Z,21.77
2019-04-22T23:50:55.865Z,21.45
2019-04-22T23:53:55.542Z,22.17
2019-04-22T23:56:04.602Z,20.37
